Time;durP1;ratioP1;P1;durP2;ratioP2;P2;SDS_P1;SDS_P2;PMS_P1;PMS_P2;Temp;Humidity;BMP_temperature;BMP_pressure;BME280_temperature;BME280_humidity;BME280_pressure;Samples;Min_cycle;Max_cycle;Signal;HPM_P1;HPM_P2
2021/05/07 00:07:34;;;;;;;18.08;8.75;;;8.10;99.90;;;;;;21163423;28;20322;-49
2021/05/07 00:17:47;;;;;;;14.45;8.10;;;8.00;99.90;;;;;;21162705;28;20036;-45
2021/05/07 00:28:00;;;;;;;11.65;5.97;;;8.00;99.90;;;;;;21165096;27;20542;-45
2021/05/07 00:38:02;;;;;;;17.65;8.65;;;8.00;99.90;;;;;;21162297;28;20023;-46
2021/05/07 00:48:12;;;;;;;13.52;6.43;;;8.10;99.90;;;;;;21160194;28;20036;-46
2021/05/07 00:58:15;;;;;;;;;;;8.20;99.90;;;;;;21142410;28;20562;-45
2021/05/07 01:08:20;;;;;;;11.93;6.30;;;8.30;99.90;;;;;;21140369;28;19911;-45
2021/05/07 01:18:26;;;;;;;8.10;5.25;;;8.20;99.90;;;;;;21139804;28;20031;-45
2021/05/07 01:28:29;;;;;;;11.45;5.28;;;8.30;99.90;;;;;;21139301;28;20031;-45
2021/05/07 01:38:42;;;;;;;10.48;4.88;;;8.30;99.90;;;;;;21141535;28;20036;-45
2021/05/07 01:48:44;;;;;;;11.65;5.05;;;8.30;99.90;;;;;;21157812;28;20484;-45
2021/05/07 01:58:47;;;;;;;8.20;4.40;;;8.30;99.90;;;;;;21115154;28;20093;-46
2021/05/07 02:08:51;;;;;;;6.47;3.97;;;8.60;99.90;;;;;;21071443;28;20070;-47
2021/05/07 02:18:53;;;;;;;7.78;4.50;;;8.50;99.90;;;;;;21036223;28;20036;-46
2021/05/07 02:28:55;;;;;;;7.13;2.80;;;8.40;99.90;;;;;;21070551;28;20032;-46
2021/05/07 02:38:58;;;;;;;11.75;3.70;;;8.20;99.90;;;;;;21051430;28;20071;-46
2021/05/07 02:49:04;;;;;;;8.45;3.67;;;8.40;99.90;;;;;;21072810;28;20440;-45
2021/05/07 02:59:06;;;;;;;3.55;2.28;;;8.00;99.90;;;;;;21109316;28;20039;-45
2021/05/07 03:09:08;;;;;;;4.00;1.88;;;8.30;99.90;;;;;;21168254;28;20028;-46
2021/05/07 03:19:10;;;;;;;4.70;2.17;;;8.50;99.90;;;;;;21167257;28;20044;-45
2021/05/07 03:29:12;;;;;;;4.70;1.90;;;8.80;99.90;;;;;;21167331;28;20039;-45
2021/05/07 03:39:13;;;;;;;3.40;1.35;;;9.00;99.90;;;;;;21166370;28;20031;-45
2021/05/07 03:49:15;;;;;;;2.85;1.35;;;9.00;99.90;;;;;;21165311;28;20039;-45
2021/05/07 03:59:17;;;;;;;4.80;1.10;;;9.10;99.90;;;;;;21163715;28;20112;-45
2021/05/07 04:09:27;;;;;;;2.08;0.93;;;9.00;99.90;;;;;;21163688;28;20040;-45
2021/05/07 04:19:29;;;;;;;3.03;1.33;;;9.00;99.90;;;;;;21162936;28;20393;-46
2021/05/07 04:29:31;;;;;;;7.25;2.05;;;8.70;99.90;;;;;;21161709;28;20554;-45
2021/05/07 04:39:33;;;;;;;4.88;1.65;;;8.50;99.90;;;;;;21161183;28;20473;-45
2021/05/07 04:49:35;;;;;;;8.23;2.30;;;8.00;99.90;;;;;;21160397;28;20477;-51
2021/05/07 04:59:37;;;;;;;9.10;2.55;;;7.70;99.90;;;;;;21159285;28;20138;-45
2021/05/07 05:09:39;;;;;;;6.28;2.17;;;7.50;99.90;;;;;;21158860;28;20465;-45
2021/05/07 05:19:41;;;;;;;8.38;3.10;;;7.40;99.90;;;;;;21157787;28;20465;-45
2021/05/07 05:29:42;;;;;;;9.80;3.78;;;7.40;99.90;;;;;;21157637;28;20032;-50
2021/05/07 05:39:44;;;;;;;5.70;3.30;;;7.50;99.90;;;;;;21157061;28;20039;-45
2021/05/07 05:49:46;;;;;;;3.00;2.00;;;7.60;99.90;;;;;;21156636;28;20032;-45
2021/05/07 05:59:51;;;;;;;4.28;1.77;;;8.00;99.90;;;;;;21125011;28;20044;-51
2021/05/07 06:09:52;;;;;;;4.90;1.77;;;8.90;99.90;;;;;;21053501;28;20032;-46
2021/05/07 06:19:57;;;;;;;4.20;1.50;;;10.00;99.90;;;;;;21071182;28;20036;-45
2021/05/07 06:29:59;;;;;;;3.88;1.42;;;11.40;99.90;;;;;;21084099;28;20092;-51
2021/05/07 06:40:03;;;;;;;3.13;0.95;;;13.60;99.90;;;;;;21086554;28;20653;-48
2021/05/07 06:50:07;;;;;;;3.58;1.23;;;17.20;99.90;;;;;;21085711;28;20036;-48
2021/05/07 07:00:10;;;;;;;3.22;1.60;;;17.80;97.90;;;;;;21118106;28;20047;-46
2021/05/07 07:10:12;;;;;;;6.55;1.80;;;18.40;92.90;;;;;;21168209;28;20061;-46
2021/05/07 07:20:15;;;;;;;3.65;1.40;;;17.70;93.30;;;;;;21167958;28;20085;-46
2021/05/07 07:30:18;;;;;;;6.00;1.50;;;16.70;97.20;;;;;;21168323;28;20035;-45
2021/05/07 07:40:20;;;;;;;4.38;1.35;;;15.20;99.50;;;;;;21147971;28;20035;-46
2021/05/07 07:50:22;;;;;;;3.55;1.25;;;14.70;99.90;;;;;;21165269;28;20093;-47
2021/05/07 08:00:25;;;;;;;4.00;1.10;;;16.30;99.90;;;;;;21162758;28;20055;-47
2021/05/07 08:10:27;;;;;;;4.22;1.40;;;17.80;99.60;;;;;;21163930;28;20040;-48
2021/05/07 08:20:29;;;;;;;4.88;1.20;;;19.10;94.00;;;;;;21162892;28;20047;-48
2021/05/07 08:30:30;;;;;;;3.83;1.30;;;19.30;95.70;;;;;;21097611;28;20486;-46
2021/05/07 08:40:32;;;;;;;5.70;1.63;;;19.80;93.60;;;;;;21076841;28;20031;-48
2021/05/07 08:50:34;;;;;;;1.98;1.08;;;18.20;96.10;;;;;;21075123;28;20106;-46
2021/05/07 09:00:37;;;;;;;4.78;1.30;;;16.90;95.10;;;;;;21110338;28;20557;-46
2021/05/07 09:10:45;;;;;;;3.72;1.55;;;17.20;97.90;;;;;;21158961;28;20084;-46
2021/05/07 09:20:49;;;;;;;4.90;1.70;;;17.60;98.80;;;;;;21158286;28;20039;-46
2021/05/07 09:30:50;;;;;;;3.22;1.95;;;18.40;97.40;;;;;;21157711;28;20028;-48
2021/05/07 09:40:55;;;;;;;3.75;1.80;;;18.70;97.40;;;;;;21157085;28;20492;-46
2021/05/07 09:51:08;;;;;;;7.05;3.00;;;19.20;95.50;;;;;;21156570;28;20031;-49
2021/05/07 10:01:10;;;;;;;4.30;2.20;;;20.20;95.40;;;;;;21125121;28;20044;-46
2021/05/07 10:11:13;;;;;;;4.75;1.67;;;20.20;95.00;;;;;;21088764;28;20085;-48
2021/05/07 10:21:15;;;;;;;4.20;2.83;;;20.20;90.80;;;;;;21088137;28;20164;-46
2021/05/07 10:31:19;;;;;;;7.28;3.72;;;20.00;91.90;;;;;;21087183;28;20040;-49
2021/05/07 10:41:20;;;;;;;6.90;4.90;;;19.90;92.30;;;;;;21085794;28;20031;-46
2021/05/07 10:51:25;;;;;;;8.82;6.30;;;19.70;93.60;;;;;;21067728;28;20085;-48
2021/05/07 11:01:28;;;;;;;10.48;5.88;;;20.70;97.00;;;;;;21127303;28;20104;-46
2021/05/07 11:11:36;;;;;;;10.93;5.75;;;21.60;93.00;;;;;;21146167;28;20035;-46
2021/05/07 11:21:38;;;;;;;10.43;6.95;;;21.10;91.90;;;;;;21168174;28;20481;-52
2021/05/07 11:31:40;;;;;;;10.27;7.40;;;19.20;95.40;;;;;;21166882;28;20035;-47
2021/05/07 11:41:43;;;;;;;12.82;6.75;;;19.30;98.40;;;;;;21137042;27;20036;-46
2021/05/07 11:51:46;;;;;;;11.57;7.70;;;19.20;96.30;;;;;;21117099;28;20061;-53
2021/05/07 12:01:49;;;;;;;14.63;8.18;;;19.60;96.00;;;;;;21126382;28;20047;-50
2021/05/07 12:11:57;;;;;;;19.13;9.55;;;18.10;98.00;;;;;;21115116;28;20086;-49
2021/05/07 12:21:58;;;;;;;15.45;10.93;;;16.90;99.90;;;;;;21101233;28;21152;-48
2021/05/07 12:32:02;;;;;;;15.80;10.93;;;16.20;99.90;;;;;;21114819;28;20036;-54
2021/05/07 12:42:06;;;;;;;15.90;10.25;;;14.70;99.90;;;;;;21091278;28;20039;-50
2021/05/07 12:52:08;;;;;;;24.73;13.18;;;14.00;99.90;;;;;;21111848;28;20050;-51
2021/05/07 13:02:10;;;;;;;17.42;11.60;;;13.40;99.90;;;;;;21075476;28;20155;-50
2021/05/07 13:12:12;;;;;;;26.23;15.45;;;13.00;99.90;;;;;;21128361;28;20662;-49
2021/05/07 13:43:37;;;;;;;25.23;13.50;;;11.50;99.90;;;;;;24226677;23;20112;-64
2021/05/07 13:53:40;;;;;;;26.10;16.05;;;11.50;99.90;;;;;;20322170;23;20116;-41
2021/05/07 14:03:41;;;;;;;25.25;15.23;;;11.30;99.90;;;;;;20281355;23;20506;-49
2021/05/07 14:13:43;;;;;;;14.13;8.20;;;11.10;99.90;;;;;;20265505;29;20049;-50
2021/05/07 14:23:47;;;;;;;6.35;2.13;;;11.40;99.90;;;;;;20264652;29;20121;-48
2021/05/07 14:33:49;;;;;;;2.28;1.17;;;11.30;99.90;;;;;;20264031;29;20425;-46
2021/05/07 14:43:51;;;;;;;2.83;1.58;;;8.60;99.90;;;;;;20265280;29;20048;-46
2021/05/07 14:53:53;;;;;;;2.70;0.98;;;8.90;99.90;;;;;;20290579;29;20048;-47
2021/05/07 15:03:54;;;;;;;1.63;0.73;;;11.00;99.90;;;;;;20355072;29;20433;-46
2021/05/07 15:13:56;;;;;;;1.85;0.55;;;10.90;99.90;;;;;;20354274;29;20052;-46
2021/05/07 15:23:58;;;;;;;1.08;0.35;;;10.70;99.90;;;;;;20354349;29;20043;-45
2021/05/07 15:34:00;;;;;;;2.25;0.30;;;10.80;99.90;;;;;;20353189;29;20052;-45
2021/05/07 15:44:02;;;;;;;1.98;0.20;;;10.60;99.90;;;;;;20352968;29;20052;-46
2021/05/07 15:54:04;;;;;;;2.42;0.17;;;10.20;99.90;;;;;;20335008;29;20036;-47
2021/05/07 16:04:06;;;;;;;0.30;0.10;;;13.50;95.50;;;;;;20350366;29;20112;-49
2021/05/07 16:14:09;;;;;;;0.80;0.32;;;16.20;82.60;;;;;;20351119;29;20048;-48
2021/05/07 16:24:11;;;;;;;0.43;0.17;;;16.10;79.20;;;;;;20333029;29;20044;-47
2021/05/07 16:34:13;;;;;;;0.30;0.15;;;12.40;92.40;;;;;;20331909;29;20103;-48
2021/05/07 16:44:15;;;;;;;0.30;0.10;;;10.50;99.90;;;;;;20331229;29;20104;-47
2021/05/07 16:54:18;;;;;;;0.52;0.20;;;9.60;99.90;;;;;;20345355;29;20465;-48
2021/05/07 17:04:19;;;;;;;2.10;0.20;;;9.10;99.90;;;;;;20267689;29;20100;-48
2021/05/07 17:14:21;;;;;;;0.75;0.20;;;8.70;99.90;;;;;;20268520;29;20516;-47
2021/05/07 17:24:23;;;;;;;0.68;0.10;;;8.50;99.90;;;;;;20266858;29;20111;-47
2021/05/07 17:34:25;;;;;;;1.40;0.10;;;8.20;99.90;;;;;;20266956;29;20076;-48
2021/05/07 17:44:27;;;;;;;1.42;0.20;;;8.00;99.90;;;;;;20265933;29;20049;-47
2021/05/07 17:54:29;;;;;;;2.75;0.20;;;7.80;99.90;;;;;;20264687;29;20376;-49
2021/05/07 18:04:30;;;;;;;2.03;0.13;;;7.70;99.90;;;;;;20265405;29;20108;-48
2021/05/07 18:14:33;;;;;;;0.88;0.10;;;7.80;99.90;;;;;;20264507;29;20052;-48
2021/05/07 18:24:35;;;;;;;0.68;0.10;;;7.60;99.90;;;;;;20275227;29;20200;-49
2021/05/07 18:34:37;;;;;;;0.45;0.10;;;7.40;99.90;;;;;;20278983;29;20052;-48
2021/05/07 18:44:39;;;;;;;0.38;0.10;;;7.10;99.90;;;;;;20227008;29;20432;-47
2021/05/07 18:54:43;;;;;;;0.22;0.10;;;6.80;99.90;;;;;;20218463;29;20040;-48
2021/05/07 19:04:45;;;;;;;0.10;0.10;;;6.40;99.90;;;;;;20277247;29;20059;-48
2021/05/07 19:14:47;;;;;;;0.60;0.15;;;6.50;99.90;;;;;;20276360;29;20115;-48
2021/05/07 19:24:49;;;;;;;0.40;0.00;;;7.00;99.90;;;;;;20276175;29;20056;-48
2021/05/07 19:34:51;;;;;;;0.15;0.10;;;7.00;99.90;;;;;;20274024;29;20045;-49
2021/05/07 19:44:54;;;;;;;0.65;0.10;;;6.70;99.90;;;;;;20274344;29;20116;-48
2021/05/07 19:54:57;;;;;;;0.00;0.00;;;6.90;99.90;;;;;;20272830;29;20502;-50
2021/05/07 20:04:59;;;;;;;0.20;0.00;;;6.80;99.90;;;;;;20272557;29;20056;-48
2021/05/07 20:15:06;;;;;;;0.00;0.00;;;6.70;95.80;;;;;;20272361;29;20410;-49
2021/05/07 20:25:10;;;;;;;0.60;0.08;;;7.00;93.10;;;;;;20271531;29;20049;-48
2021/05/07 20:35:20;;;;;;;0.47;0.10;;;7.10;86.50;;;;;;20270899;29;20458;-48
2021/05/07 20:45:23;;;;;;;0.20;0.00;;;7.50;79.30;;;;;;20268724;29;20048;-50
2021/05/07 20:55:25;;;;;;;0.00;0.00;;;7.60;78.90;;;;;;20251118;29;20466;-48
2021/05/07 21:05:28;;;;;;;0.30;0.00;;;7.60;76.70;;;;;;20268327;29;20482;-49
2021/05/07 21:15:32;;;;;;;0.10;0.00;;;7.50;73.40;;;;;;20267874;29;20096;-48
2021/05/07 21:25:34;;;;;;;0.32;0.10;;;7.50;68.80;;;;;;20268198;29;20511;-48
2021/05/07 21:35:36;;;;;;;0.00;0.00;;;7.40;75.00;;;;;;20267693;29;20044;-49
2021/05/07 21:45:39;;;;;;;0.10;0.00;;;7.10;73.80;;;;;;20265912;29;20124;-48
2021/05/07 21:55:41;;;;;;;0.10;0.00;;;6.80;71.50;;;;;;20263045;29;20052;-50
2021/05/07 22:05:43;;;;;;;0.00;0.00;;;6.90;69.90;;;;;;20265060;29;20107;-49
2021/05/07 22:15:45;;;;;;;0.10;0.00;;;7.30;67.90;;;;;;20264110;29;20051;-50
2021/05/07 22:25:47;;;;;;;0.60;0.10;;;7.30;67.60;;;;;;20264014;29;20341;-50
2021/05/07 22:35:49;;;;;;;0.38;0.00;;;7.30;68.00;;;;;;20263781;29;20052;-52
2021/05/07 22:45:51;;;;;;;0.28;0.00;;;7.20;64.70;;;;;;20263194;29;20056;-50
2021/05/07 22:55:54;;;;;;;0.17;0.10;;;7.20;66.30;;;;;;20263122;29;20040;-50
2021/05/07 23:05:56;;;;;;;0.63;0.08;;;7.00;64.80;;;;;;20267305;29;20846;-48
2021/05/07 23:15:57;;;;;;;2.45;0.10;;;6.90;64.90;;;;;;20278158;29;20498;-48
2021/05/07 23:25:59;;;;;;;0.10;0.00;;;6.80;64.60;;;;;;20276410;29;20055;-48
2021/05/07 23:36:02;;;;;;;2.35;0.10;;;6.60;66.50;;;;;;20275438;29;20191;-49
2021/05/07 23:46:04;;;;;;;2.78;0.10;;;6.50;65.50;;;;;;20274705;29;20097;-47
2021/05/07 23:56:06;;;;;;;0.00;0.00;;;6.50;63.20;;;;;;20273979;29;20056;-48
